Chaiyaphum, Thailand
Current Conditions -  °F | °C
As of 2:00 AM on Saturday 20 Dec 2014 (Local Time) from VTUK Reporting Station
Scattered Clouds Scattered Clouds  
Wind Chill: 66°   Ceiling: Unl
Heat Index: 66°   Visibility: 6mi
Dew Point: 54°   Wind: 5mph
Humidity: 64%   Direction: 30°NNE
Pressure: 30.03"   Gusts: NA
Location:  15.8°N, 102.04°E
Report Text: VTUK 191900Z 03004KT 9999 FEW035 SCT150 19/12 Q1017 A3004NOSIG
Loading
Personal Weather Stations






























Interactive Weather Map New forecast layout! Learn more

10-Day Weather Forecast

Advertisements
Track Severe Weather on mobile